createdAt,value
2023-03-10T00:01:29.809Z,4.10
2023-03-10T00:03:59.396Z,6.00
2023-03-10T00:06:29.268Z,4.70
2023-03-10T00:08:59.389Z,4.50
2023-03-10T00:11:27.791Z,6.70
2023-03-10T00:13:57.182Z,4.90
2023-03-10T00:16:29.685Z,4.00
2023-03-10T00:18:59.314Z,3.60
2023-03-10T00:21:30.261Z,3.10
2023-03-10T00:23:59.321Z,3.50
2023-03-10T00:26:29.095Z,2.80
2023-03-10T00:28:57.406Z,3.70
2023-03-10T00:31:28.039Z,3.20
2023-03-10T00:33:56.570Z,3.40
2023-03-10T00:36:28.410Z,3.10
2023-03-10T00:38:57.466Z,3.30
2023-03-10T00:41:27.719Z,2.70
2023-03-10T00:43:55.945Z,4.10
2023-03-10T00:46:25.554Z,3.40
2023-03-10T00:48:53.780Z,2.00
2023-03-10T00:51:22.174Z,2.60
2023-03-10T00:53:50.940Z,3.10
2023-03-10T00:56:24.538Z,3.10
2023-03-10T00:58:56.069Z,3.30
2023-03-10T01:01:39.788Z,2.90
2023-03-10T01:04:14.307Z,3.00
2023-03-10T01:06:44.663Z,3.70
2023-03-10T01:09:14.871Z,3.00
2023-03-10T01:11:43.148Z,4.70
2023-03-10T01:14:13.467Z,3.90
2023-03-10T01:16:41.648Z,3.50
2023-03-10T01:19:09.853Z,3.00
2023-03-10T01:21:38.530Z,2.70
2023-03-10T01:24:07.015Z,3.00
2023-03-10T01:26:35.882Z,1.90
2023-03-10T01:29:05.501Z,4.00
2023-03-10T01:31:33.840Z,2.60
2023-03-10T01:34:03.587Z,3.40
2023-03-10T01:36:31.844Z,2.40
2023-03-10T01:39:00.526Z,3.50
2023-03-10T01:41:29.090Z,2.20
2023-03-10T01:43:57.771Z,2.70
2023-03-10T01:46:38.502Z,4.20
2023-03-10T01:49:19.502Z,2.30
2023-03-10T01:51:54.212Z,3.90
2023-03-10T01:54:26.253Z,3.90
2023-03-10T01:56:54.485Z,3.60
2023-03-10T01:59:22.701Z,2.60
2023-03-10T02:01:51.254Z,4.00
2023-03-10T02:04:27.368Z,3.60
2023-03-10T02:06:55.731Z,3.00
2023-03-10T02:09:25.010Z,3.70
2023-03-10T02:11:53.307Z,4.60
2023-03-10T02:14:24.679Z,2.90
2023-03-10T02:16:53.303Z,4.10
2023-03-10T02:19:45.057Z,4.30
2023-03-10T02:22:15.660Z,3.60
2023-03-10T02:24:54.846Z,3.10
2023-03-10T02:27:24.974Z,4.50
2023-03-10T02:30:02.728Z,4.10
2023-03-10T02:32:36.078Z,2.90
2023-03-10T02:35:04.829Z,6.30
2023-03-10T02:37:34.313Z,3.00
2023-03-10T02:40:05.031Z,3.50
2023-03-10T02:42:35.949Z,6.30
2023-03-10T02:45:05.522Z,10.50
2023-03-10T02:47:34.493Z,11.20
2023-03-10T02:50:05.147Z,13.10
2023-03-10T02:52:47.553Z,11.00
2023-03-10T02:55:17.349Z,3.70
2023-03-10T02:57:45.667Z,3.80
2023-03-10T03:00:14.306Z,2.80
2023-03-10T03:02:44.368Z,3.60
2023-03-10T03:05:13.960Z,4.00
2023-03-10T03:07:42.443Z,2.60
2023-03-10T03:10:12.121Z,4.80
2023-03-10T03:12:40.606Z,4.50
2023-03-10T03:15:13.900Z,4.00
2023-03-10T03:17:43.952Z,6.20
2023-03-10T03:20:15.697Z,3.80
2023-03-10T03:22:47.742Z,4.90
2023-03-10T03:25:18.061Z,4.60
2023-03-10T03:27:47.010Z,4.20
2023-03-10T03:30:17.496Z,5.10
2023-03-10T03:32:45.950Z,4.40
2023-03-10T03:35:17.337Z,6.80
2023-03-10T03:37:46.346Z,4.40
2023-03-10T03:40:15.888Z,4.40
2023-03-10T03:42:48.413Z,3.90
2023-03-10T03:45:20.237Z,5.60
2023-03-10T03:47:49.717Z,8.20
2023-03-10T03:50:19.271Z,4.60
2023-03-10T03:52:47.654Z,3.30
2023-03-10T03:55:17.109Z,2.60
2023-03-10T03:57:47.475Z,3.20
2023-03-10T04:00:18.753Z,2.80
2023-03-10T04:02:47.472Z,2.70
2023-03-10T04:05:19.581Z,3.60
2023-03-10T04:07:50.129Z,3.00
2023-03-10T04:10:20.858Z,3.00
2023-03-10T04:12:57.135Z,3.90
2023-03-10T04:15:25.766Z,4.60
2023-03-10T04:17:57.869Z,3.70
2023-03-10T04:20:26.630Z,3.40
2023-03-10T04:22:55.675Z,3.10
2023-03-10T04:30:55.517Z,3.40
2023-03-10T04:33:28.997Z,3.20
2023-03-10T04:35:57.618Z,8.20
2023-03-10T04:38:28.265Z,5.10
2023-03-10T04:40:56.911Z,3.60
2023-03-10T04:43:27.603Z,7.10
2023-03-10T04:45:56.407Z,4.50
2023-03-10T04:48:24.914Z,3.80
2023-03-10T04:51:01.557Z,4.70
2023-03-10T04:53:32.797Z,3.40
2023-03-10T04:56:03.583Z,6.10
2023-03-10T04:58:32.819Z,6.80
2023-03-10T05:01:03.430Z,5.20
2023-03-10T05:03:37.124Z,5.30
2023-03-10T05:06:15.584Z,7.40
2023-03-10T05:08:46.244Z,4.90
2023-03-10T05:11:14.640Z,5.60
2023-03-10T05:13:43.037Z,5.40
2023-03-10T05:16:16.787Z,7.40
2023-03-10T05:18:47.510Z,10.60
2023-03-10T05:21:16.848Z,9.00
2023-03-10T05:23:46.526Z,6.60
2023-03-10T05:26:15.850Z,5.90
2023-03-10T05:28:47.809Z,6.40
2023-03-10T05:31:26.155Z,6.30
2023-03-10T05:33:58.460Z,5.50
2023-03-10T05:36:26.916Z,5.40
2023-03-10T05:38:55.350Z,6.10
2023-03-10T05:41:23.575Z,3.70
2023-03-10T05:43:54.555Z,4.60
2023-03-10T05:46:24.587Z,3.90
2023-03-10T05:48:56.092Z,3.30
2023-03-10T05:51:25.171Z,5.10
2023-03-10T05:53:53.544Z,4.60
2023-03-10T05:56:26.083Z,4.10
2023-03-10T05:58:57.031Z,4.90
2023-03-10T06:01:29.637Z,4.00
2023-03-10T06:03:58.587Z,5.20
2023-03-10T06:06:26.750Z,5.00
2023-03-10T06:08:56.743Z,5.00
2023-03-10T06:11:26.398Z,4.40
2023-03-10T06:13:55.341Z,7.30
2023-03-10T06:16:23.628Z,4.90
2023-03-10T06:18:56.682Z,4.50
2023-03-10T06:21:25.379Z,3.70
2023-03-10T06:23:53.838Z,3.60
2023-03-10T06:26:22.907Z,3.40
2023-03-10T06:28:51.461Z,5.30
2023-03-10T06:31:22.414Z,3.60
2023-03-10T06:33:51.051Z,5.50
2023-03-10T06:36:20.970Z,6.90
2023-03-10T06:38:49.239Z,6.20
2023-03-10T06:41:17.644Z,5.40
2023-03-10T06:43:45.883Z,6.80
2023-03-10T06:46:16.548Z,7.10
2023-03-10T06:48:46.779Z,4.90
2023-03-10T06:51:17.348Z,9.70
2023-03-10T06:53:46.280Z,7.90
2023-03-10T06:56:19.591Z,8.10
2023-03-10T06:58:49.793Z,6.80
2023-03-10T07:01:29.351Z,6.80
2023-03-10T07:03:58.256Z,7.70
2023-03-10T07:06:32.353Z,7.50
2023-03-10T07:09:21.014Z,7.20
2023-03-10T07:11:49.945Z,5.40
2023-03-10T07:14:18.478Z,7.10
2023-03-10T07:16:46.773Z,7.50
2023-03-10T07:19:15.497Z,6.30
2023-03-10T07:21:44.274Z,6.20
2023-03-10T07:24:14.383Z,6.50
2023-03-10T07:26:42.965Z,12.70
2023-03-10T07:29:12.279Z,10.30
2023-03-10T07:31:41.110Z,4.70
2023-03-10T07:34:10.784Z,5.80
2023-03-10T07:36:39.389Z,3.50
2023-03-10T07:39:07.636Z,4.50
2023-03-10T07:41:36.112Z,4.40
2023-03-10T07:44:04.892Z,4.50
2023-03-10T07:46:34.556Z,3.60
2023-03-10T07:49:06.836Z,4.40
2023-03-10T07:51:35.983Z,5.20
2023-03-10T07:54:04.528Z,5.20
2023-03-10T07:56:33.880Z,5.00
2023-03-10T07:59:02.474Z,5.60
2023-03-10T08:01:36.144Z,5.90
2023-03-10T08:04:05.360Z,5.70
2023-03-10T08:06:35.765Z,7.40
2023-03-10T08:09:04.247Z,4.50
2023-03-10T08:11:32.537Z,6.40
2023-03-10T08:14:02.188Z,6.90
2023-03-10T08:16:31.105Z,5.70
2023-03-10T08:18:59.596Z,8.50
2023-03-10T08:21:28.246Z,6.60
2023-03-10T08:23:57.161Z,4.80
2023-03-10T08:26:25.424Z,5.40
2023-03-10T08:28:53.815Z,6.40
2023-03-10T08:31:22.136Z,5.90
2023-03-10T08:33:54.622Z,8.50
2023-03-10T08:36:24.370Z,5.70
2023-03-10T08:38:54.272Z,5.50
2023-03-10T08:41:24.866Z,6.90
2023-03-10T08:43:57.370Z,7.30
2023-03-10T08:46:28.248Z,6.90
2023-03-10T08:48:56.854Z,9.20
2023-03-10T08:51:26.154Z,8.30
2023-03-10T08:53:54.568Z,10.10
2023-03-10T08:56:23.200Z,8.70
2023-03-10T08:58:54.522Z,11.20
2023-03-10T09:01:23.174Z,9.60
2023-03-10T09:03:51.440Z,13.80
2023-03-10T09:06:19.859Z,8.20
2023-03-10T09:08:50.777Z,6.10
2023-03-10T09:11:25.770Z,8.20
2023-03-10T09:13:54.470Z,8.70
2023-03-10T09:16:24.882Z,5.10
2023-03-10T09:18:53.168Z,6.30
2023-03-10T09:21:21.617Z,6.30
2023-03-10T09:23:50.477Z,7.40
2023-03-10T09:26:19.798Z,10.60
2023-03-10T09:28:51.228Z,9.80
2023-03-10T09:31:23.385Z,7.50
2023-03-10T09:33:53.025Z,6.30
2023-03-10T09:36:25.020Z,5.00
2023-03-10T09:38:54.796Z,8.50
2023-03-10T09:41:34.621Z,9.60
2023-03-10T09:44:23.892Z,8.60
2023-03-10T09:46:52.713Z,6.90
2023-03-10T09:49:57.395Z,5.90
2023-03-10T09:52:30.336Z,7.00
2023-03-10T09:55:07.311Z,7.30
2023-03-10T09:57:35.664Z,6.30
2023-03-10T10:00:11.719Z,7.00
2023-03-10T10:02:43.742Z,6.10
2023-03-10T10:05:27.521Z,8.00
2023-03-10T10:07:58.284Z,8.80
2023-03-10T10:10:28.785Z,7.80
2023-03-10T10:13:12.752Z,9.70
2023-03-10T10:15:47.442Z,7.10
2023-03-10T10:18:25.691Z,6.00
2023-03-10T10:21:02.424Z,5.40
2023-03-10T10:23:50.825Z,5.50
2023-03-10T10:26:26.453Z,5.90
2023-03-10T10:28:59.572Z,5.90
2023-03-10T10:34:00.613Z,9.10
2023-03-10T10:36:48.343Z,8.40
2023-03-10T10:39:37.291Z,8.80
2023-03-10T10:42:28.597Z,8.60
2023-03-10T10:45:04.945Z,7.80
2023-03-10T10:47:36.325Z,5.70
2023-03-10T10:50:18.346Z,6.80
2023-03-10T10:52:50.654Z,8.30
2023-03-10T10:55:30.355Z,7.80
2023-03-10T10:58:01.771Z,6.80
2023-03-10T11:00:32.470Z,5.60
2023-03-10T11:03:19.335Z,7.60
2023-03-10T11:05:48.560Z,7.10
2023-03-10T11:08:27.098Z,6.60
2023-03-10T11:10:59.401Z,10.30
2023-03-10T11:14:00.189Z,9.60
2023-03-10T11:16:47.172Z,6.30
2023-03-10T11:19:28.542Z,7.60
2023-03-10T11:22:03.041Z,5.80
2023-03-10T11:24:46.010Z,7.50
2023-03-10T11:30:02.345Z,7.60
2023-03-10T11:32:41.210Z,8.20
2023-03-10T11:35:24.234Z,8.60
2023-03-10T11:38:10.740Z,5.80
2023-03-10T11:40:49.410Z,6.50
2023-03-10T11:43:26.854Z,5.70
2023-03-10T11:45:55.595Z,6.40
2023-03-10T11:49:12.438Z,5.70
2023-03-10T11:51:48.490Z,6.80
2023-03-10T11:54:35.404Z,6.00
2023-03-10T11:57:09.817Z,7.50
2023-03-10T11:59:43.380Z,8.00
2023-03-10T12:02:27.429Z,5.30
2023-03-10T12:05:13.567Z,5.60
2023-03-10T12:07:45.961Z,7.20
2023-03-10T12:10:22.020Z,7.20
2023-03-10T12:12:51.367Z,7.60
2023-03-10T12:15:37.164Z,7.10
2023-03-10T12:18:08.051Z,5.60
2023-03-10T12:20:36.457Z,7.10
2023-03-10T12:23:10.086Z,8.00
2023-03-10T12:25:39.271Z,7.60
2023-03-10T12:28:16.870Z,8.00
2023-03-10T12:30:47.473Z,6.20
2023-03-10T12:33:39.715Z,7.70
2023-03-10T12:36:32.830Z,6.60
2023-03-10T12:39:26.358Z,9.20
2023-03-10T12:42:35.025Z,6.40
2023-03-10T12:45:29.593Z,9.70
2023-03-10T12:48:02.054Z,8.10
2023-03-10T12:53:11.547Z,9.00
2023-03-10T12:55:43.704Z,8.00
2023-03-10T12:58:23.337Z,7.00
2023-03-10T13:00:58.171Z,12.80
2023-03-10T13:03:35.566Z,12.50
2023-03-10T13:06:04.028Z,12.50
2023-03-10T13:08:50.180Z,9.80
2023-03-10T13:11:18.440Z,7.90
2023-03-10T13:13:53.940Z,6.30
2023-03-10T13:16:22.218Z,6.90
2023-03-10T13:18:54.280Z,7.70
2023-03-10T13:21:29.634Z,5.00
2023-03-10T13:24:04.443Z,6.90
2023-03-10T13:26:34.151Z,7.30
2023-03-10T13:29:04.312Z,5.80
2023-03-10T13:31:33.986Z,4.30
2023-03-10T13:34:21.284Z,5.80
2023-03-10T13:36:49.810Z,6.70
2023-03-10T13:39:27.457Z,9.20
2023-03-10T13:41:58.690Z,8.10
2023-03-10T13:44:34.677Z,5.40
2023-03-10T13:47:04.878Z,5.20
2023-03-10T13:49:35.299Z,6.50
2023-03-10T13:52:06.685Z,8.10
2023-03-10T13:54:41.201Z,8.90
2023-03-10T13:57:31.111Z,13.50
2023-03-10T14:00:00.192Z,10.10
2023-03-10T14:02:48.089Z,13.80
2023-03-10T14:05:39.590Z,9.90
2023-03-10T14:08:28.108Z,9.80
2023-03-10T14:11:22.073Z,8.90
2023-03-10T14:13:50.378Z,7.90
2023-03-10T14:16:18.961Z,9.30
2023-03-10T14:18:51.303Z,8.40
2023-03-10T14:21:25.072Z,7.10
2023-03-10T14:23:53.727Z,7.60
2023-03-10T14:26:23.613Z,8.60
2023-03-10T14:28:51.775Z,10.30
2023-03-10T14:31:22.060Z,7.80
2023-03-10T14:33:51.010Z,7.40
2023-03-10T14:36:19.549Z,7.70
2023-03-10T14:38:49.671Z,6.80
2023-03-10T14:41:19.053Z,8.20
2023-03-10T14:43:47.268Z,8.10
2023-03-10T14:46:15.720Z,8.40
2023-03-10T14:48:46.131Z,9.60
2023-03-10T14:51:28.972Z,10.50
2023-03-10T14:54:01.452Z,11.50
2023-03-10T14:56:33.556Z,12.00
2023-03-10T14:59:02.747Z,9.20
2023-03-10T15:01:32.397Z,12.90
2023-03-10T15:04:00.923Z,16.40
2023-03-10T15:06:29.876Z,16.10
2023-03-10T15:09:05.011Z,15.70
2023-03-10T15:11:37.245Z,23.40
2023-03-10T15:14:17.847Z,28.50
2023-03-10T15:16:49.064Z,39.00
2023-03-10T15:19:21.307Z,25.10
2023-03-10T15:21:49.635Z,22.60
2023-03-10T15:24:18.014Z,28.60
2023-03-10T15:26:49.133Z,21.60
2023-03-10T15:29:23.679Z,23.30
2023-03-10T15:31:52.794Z,20.10
2023-03-10T15:34:22.914Z,23.80
2023-03-10T15:36:51.498Z,23.50
2023-03-10T15:39:31.139Z,24.40
2023-03-10T15:42:00.540Z,26.30
2023-03-10T15:44:29.541Z,25.20
2023-03-10T15:47:00.167Z,22.80
2023-03-10T15:49:30.751Z,23.70
2023-03-10T15:51:59.389Z,21.20
2023-03-10T15:54:27.764Z,20.50
2023-03-10T15:56:56.464Z,20.80
2023-03-10T15:59:28.053Z,23.50
2023-03-10T16:01:57.631Z,22.40
2023-03-10T16:04:26.084Z,19.00
2023-03-10T16:06:55.029Z,23.30
2023-03-10T16:09:23.334Z,30.40
2023-03-10T16:11:52.240Z,33.20
2023-03-10T16:14:26.464Z,35.20
2023-03-10T16:16:55.224Z,25.70
2023-03-10T16:19:23.383Z,19.40
2023-03-10T16:21:52.690Z,17.20
2023-03-10T16:24:21.980Z,16.60
2023-03-10T16:26:50.190Z,16.60
2023-03-10T16:29:19.989Z,14.80
2023-03-10T16:31:48.353Z,15.40
2023-03-10T16:34:18.253Z,14.90
2023-03-10T16:36:49.743Z,16.30
2023-03-10T16:39:18.804Z,15.10
2023-03-10T16:41:49.973Z,14.40
2023-03-10T16:44:22.118Z,16.60
2023-03-10T16:46:50.458Z,19.20
2023-03-10T16:49:18.725Z,20.70
2023-03-10T16:51:47.357Z,20.30
2023-03-10T16:54:20.683Z,21.40
2023-03-10T16:56:50.870Z,26.20
2023-03-10T16:59:21.758Z,15.50
2023-03-10T17:01:50.654Z,13.20
2023-03-10T17:04:19.356Z,20.30
2023-03-10T17:06:48.862Z,15.50
2023-03-10T17:09:17.446Z,12.70
2023-03-10T17:11:55.190Z,12.80
2023-03-10T17:14:24.590Z,13.60
2023-03-10T17:16:54.157Z,18.20
2023-03-10T17:19:28.850Z,18.70
2023-03-10T17:21:57.475Z,19.20
2023-03-10T17:24:27.591Z,14.40
2023-03-10T17:26:57.043Z,13.40
2023-03-10T17:29:25.634Z,14.80
2023-03-10T17:31:56.935Z,14.60
2023-03-10T17:34:27.240Z,14.40
2023-03-10T17:36:56.510Z,13.20
2023-03-10T17:39:27.867Z,19.10
2023-03-10T17:41:56.211Z,17.30
2023-03-10T17:44:27.519Z,17.90
2023-03-10T17:46:58.965Z,14.90
2023-03-10T17:49:27.713Z,16.10
2023-03-10T17:51:55.977Z,20.80
2023-03-10T17:54:26.490Z,17.40
2023-03-10T17:56:55.432Z,19.20
2023-03-10T17:59:23.603Z,19.10
2023-03-10T18:01:53.088Z,19.30
2023-03-10T18:04:21.709Z,20.90
2023-03-10T18:06:55.793Z,21.10
2023-03-10T18:09:43.872Z,25.20
2023-03-10T18:12:13.325Z,27.30
2023-03-10T18:14:44.817Z,26.30
2023-03-10T18:17:13.069Z,27.80
2023-03-10T18:19:52.406Z,26.20
2023-03-10T18:22:22.686Z,34.10
2023-03-10T18:24:51.006Z,62.70
2023-03-10T18:27:19.593Z,75.60
2023-03-10T18:29:47.991Z,85.70
2023-03-10T18:32:19.040Z,86.00
2023-03-10T18:34:49.813Z,68.80
2023-03-10T18:37:26.654Z,48.40
2023-03-10T18:40:06.135Z,36.30
2023-03-10T18:42:41.095Z,27.90
2023-03-10T18:45:10.529Z,25.50
2023-03-10T18:47:39.088Z,29.60
2023-03-10T18:50:25.905Z,31.60
2023-03-10T18:52:59.479Z,29.40
2023-03-10T18:55:27.893Z,26.60
2023-03-10T18:57:56.618Z,25.30
2023-03-10T19:00:25.776Z,23.80
2023-03-10T19:02:54.722Z,24.90
2023-03-10T19:05:23.195Z,24.90
2023-03-10T19:07:51.439Z,21.60
2023-03-10T19:10:19.858Z,24.40
2023-03-10T19:12:50.067Z,25.50
2023-03-10T19:15:18.904Z,26.80
2023-03-10T19:36:04.997Z,29.20
2023-03-10T19:38:46.777Z,28.50
2023-03-10T19:42:18.322Z,29.40
2023-03-10T19:47:26.538Z,25.00
2023-03-10T19:49:58.349Z,23.70
2023-03-10T19:52:26.759Z,25.70
2023-03-10T19:54:55.112Z,24.30
2023-03-10T19:57:23.514Z,24.80
2023-03-10T19:59:52.596Z,24.50
2023-03-10T20:02:20.911Z,27.30
2023-03-10T20:04:50.710Z,26.50
2023-03-10T20:07:18.930Z,27.60
2023-03-10T20:09:49.741Z,27.00
2023-03-10T20:12:18.532Z,24.40
2023-03-10T20:14:47.500Z,24.80
2023-03-10T20:17:17.954Z,28.60
2023-03-10T20:19:47.691Z,23.80
2023-03-10T20:22:19.104Z,26.90
2023-03-10T20:24:47.446Z,30.00
2023-03-10T20:27:15.725Z,26.50
2023-03-10T20:29:48.231Z,26.30
2023-03-10T20:32:16.693Z,29.40
2023-03-10T20:34:45.195Z,27.00
2023-03-10T20:37:13.409Z,25.60
2023-03-10T20:39:49.132Z,26.40
2023-03-10T20:42:17.402Z,27.60
2023-03-10T20:44:45.805Z,27.10
2023-03-10T20:47:15.006Z,28.70
2023-03-10T20:49:43.918Z,24.60
2023-03-10T20:52:12.442Z,25.60
2023-03-10T20:54:41.439Z,26.50
2023-03-10T20:57:09.841Z,26.90
2023-03-10T20:59:40.180Z,26.00
2023-03-10T21:02:39.292Z,27.30
2023-03-10T21:05:07.900Z,28.10
2023-03-10T21:07:36.358Z,30.90
2023-03-10T21:10:06.460Z,30.60
2023-03-10T21:12:35.614Z,31.50
2023-03-10T21:15:04.893Z,30.40
2023-03-10T21:17:34.956Z,31.80
2023-03-10T21:20:11.796Z,29.20
2023-03-10T21:22:40.193Z,29.60
2023-03-10T21:25:15.116Z,34.50
2023-03-10T21:27:47.828Z,32.00
2023-03-10T21:30:18.057Z,32.30
2023-03-10T21:33:02.762Z,34.00
2023-03-10T21:35:34.317Z,31.60
2023-03-10T21:38:04.930Z,31.30
2023-03-10T21:40:33.424Z,33.50
2023-03-10T21:43:04.569Z,33.10
2023-03-10T21:45:37.467Z,35.50
2023-03-10T21:48:06.390Z,38.00
2023-03-10T21:50:34.629Z,37.40
2023-03-10T21:53:03.374Z,37.50
2023-03-10T21:55:32.236Z,34.60
2023-03-10T21:58:00.521Z,38.90
2023-03-10T22:00:30.168Z,35.60
2023-03-10T22:02:58.907Z,36.50
2023-03-10T22:05:27.747Z,37.10
2023-03-10T22:08:01.473Z,35.20
2023-03-10T22:10:31.283Z,36.40
2023-03-10T22:12:59.596Z,40.10
2023-03-10T22:15:29.045Z,41.40
2023-03-10T22:18:00.114Z,43.30
2023-03-10T22:20:28.853Z,38.40
2023-03-10T22:22:57.416Z,39.00
2023-03-10T22:25:25.752Z,39.20
2023-03-10T22:27:55.780Z,40.90
2023-03-10T22:30:25.303Z,38.80
2023-03-10T22:32:54.070Z,35.20
2023-03-10T22:35:22.346Z,38.80
2023-03-10T22:37:51.726Z,36.50
2023-03-10T22:40:22.150Z,35.30
2023-03-10T22:42:55.706Z,36.20
2023-03-10T22:45:31.345Z,39.40
2023-03-10T22:48:02.108Z,35.80
2023-03-10T22:50:50.574Z,35.30
2023-03-10T22:53:19.486Z,35.70
2023-03-10T22:55:49.808Z,33.60
2023-03-10T22:58:22.183Z,34.70
2023-03-10T23:00:51.206Z,38.40
2023-03-10T23:03:20.905Z,35.20
2023-03-10T23:05:49.413Z,34.30
2023-03-10T23:08:18.900Z,34.80
2023-03-10T23:10:47.593Z,34.50
2023-03-10T23:13:17.567Z,32.90
2023-03-10T23:15:46.628Z,32.50
2023-03-10T23:18:15.673Z,37.30
2023-03-10T23:20:47.942Z,31.20
2023-03-10T23:23:16.498Z,31.50
2023-03-10T23:25:47.315Z,29.30
2023-03-10T23:28:19.512Z,31.60
2023-03-10T23:30:48.280Z,28.60
2023-03-10T23:33:19.265Z,29.70
2023-03-10T23:35:50.546Z,30.40
2023-03-10T23:38:19.237Z,28.70
2023-03-10T23:40:47.897Z,27.70
2023-03-10T23:43:16.545Z,29.70
2023-03-10T23:45:53.332Z,31.70
2023-03-10T23:48:24.725Z,30.20
2023-03-10T23:50:53.040Z,31.70
2023-03-10T23:53:22.065Z,29.90
2023-03-10T23:55:50.334Z,30.20
2023-03-10T23:58:19.896Z,28.50
